Time;durP1;ratioP1;P1;durP2;ratioP2;P2;SDS_P1;SDS_P2;PMS_P1;PMS_P2;Temp;Humidity;BMP_temperature;BMP_pressure;BME280_temperature;BME280_humidity;BME280_pressure;Samples;Min_cycle;Max_cycle;Signal;HPM_P1;HPM_P2
2022/01/27 00:04:49;;;;;;;53.87;25.20;;;5.40;99.90;;;;;;5039608;28;20057;-76
2022/01/27 00:07:15;;;;;;;55.83;25.27;;;5.40;99.90;;;;;;5055719;28;20044;-77
2022/01/27 00:09:47;;;;;;;52.40;23.27;;;5.40;99.90;;;;;;5055987;28;20519;-76
2022/01/27 00:12:17;;;;;;;50.75;24.52;;;5.40;99.90;;;;;;5037647;28;20120;-76
2022/01/27 00:14:46;;;;;;;51.53;24.30;;;5.40;99.90;;;;;;5057189;28;20044;-76
2022/01/27 00:17:26;;;;;;;48.47;23.53;;;5.50;99.90;;;;;;5039613;28;20041;-77
2022/01/27 00:19:52;;;;;;;50.20;24.10;;;5.40;99.90;;;;;;5040563;28;20037;-76
2022/01/27 00:22:17;;;;;;;52.40;22.53;;;5.40;99.90;;;;;;5055996;28;20048;-76
2022/01/27 00:24:43;;;;;;;49.33;23.40;;;5.40;99.90;;;;;;5037934;28;20069;-76
2022/01/27 00:27:10;;;;;;;49.33;23.13;;;5.50;99.90;;;;;;5038823;28;20052;-76
2022/01/27 00:29:35;;;;;;;50.50;21.97;;;5.50;99.90;;;;;;5038528;28;20049;-76
2022/01/27 00:32:02;;;;;;;47.60;22.27;;;5.50;99.90;;;;;;5038558;28;20043;-76
2022/01/27 00:34:27;;;;;;;44.27;21.17;;;5.50;99.90;;;;;;5038672;28;20424;-76
2022/01/27 00:36:53;;;;;;;49.73;21.90;;;5.50;99.90;;;;;;5054628;28;20056;-75
2022/01/27 00:39:19;;;;;;;43.77;21.67;;;5.50;99.90;;;;;;5038862;28;20040;-75
2022/01/27 00:41:44;;;;;;;49.37;22.47;;;5.50;99.90;;;;;;5054626;28;20060;-75
2022/01/27 00:44:10;;;;;;;44.30;22.47;;;5.60;99.90;;;;;;5055123;28;20060;-76
2022/01/27 00:46:37;;;;;;;45.30;22.70;;;5.60;99.90;;;;;;5019567;28;20037;-76
2022/01/27 00:49:03;;;;;;;44.77;22.73;;;5.60;99.90;;;;;;5021803;28;20083;-76
2022/01/27 00:51:34;;;;;;;52.87;23.33;;;5.50;99.90;;;;;;5055084;28;20057;-77
2022/01/27 00:54:07;;;;;;;45.95;21.65;;;5.60;99.90;;;;;;5054369;28;20056;-76
2022/01/27 00:59:22;;;;;;;45.38;22.52;;;5.50;99.90;;;;;;5056084;28;20053;-76
2022/01/27 01:01:57;;;;;;;46.37;21.83;;;5.40;99.90;;;;;;5087105;28;20065;-76
2022/01/27 01:04:29;;;;;;;45.67;21.60;;;5.50;99.90;;;;;;5053894;28;20760;-75
2022/01/27 01:06:55;;;;;;;47.78;22.33;;;5.40;99.90;;;;;;5054926;28;20641;-78
2022/01/27 01:14:51;;;;;;;44.50;21.95;;;5.50;99.90;;;;;;5052739;28;20108;-76
2022/01/27 01:20:06;;;;;;;46.43;22.47;;;5.50;99.90;;;;;;5053904;28;20049;-76
2022/01/27 01:30:52;;;;;;;44.13;21.43;;;5.50;99.90;;;;;;5052774;28;20073;-75
2022/01/27 01:33:23;;;;;;;48.50;21.57;;;5.50;99.90;;;;;;5052859;28;20119;-76
2022/01/27 01:35:51;;;;;;;40.60;20.77;;;5.50;99.90;;;;;;5054725;28;20057;-76
2022/01/27 01:38:20;;;;;;;41.53;21.30;;;5.50;99.90;;;;;;5054167;28;20045;-76
2022/01/27 01:40:50;;;;;;;43.47;21.43;;;5.50;99.90;;;;;;5053143;28;20580;-76
2022/01/27 01:43:17;;;;;;;43.00;20.13;;;5.50;99.90;;;;;;5053562;28;20140;-76
2022/01/27 01:45:44;;;;;;;41.10;20.33;;;5.50;99.90;;;;;;5053546;28;20032;-76
2022/01/27 01:48:10;;;;;;;43.23;20.67;;;5.50;99.90;;;;;;5053445;28;20044;-76
2022/01/27 01:50:36;;;;;;;42.00;20.70;;;5.50;99.90;;;;;;5053712;28;20047;-76
2022/01/27 01:53:03;;;;;;;45.13;22.13;;;5.50;99.90;;;;;;5036945;28;20496;-76
2022/01/27 01:55:30;;;;;;;41.90;21.10;;;5.50;99.90;;;;;;5037169;28;20044;-76
2022/01/27 01:57:57;;;;;;;39.87;19.13;;;5.50;99.90;;;;;;5036377;28;20041;-75
2022/01/27 02:00:23;;;;;;;42.10;20.00;;;5.50;99.90;;;;;;5053236;28;20080;-76
2022/01/27 02:02:49;;;;;;;38.13;19.03;;;5.50;99.90;;;;;;5053040;28;20069;-76
2022/01/27 02:05:15;;;;;;;41.53;20.53;;;5.50;99.90;;;;;;5036419;28;20052;-76
2022/01/27 02:19:30;;;;;;;46.50;20.63;;;5.50;99.90;;;;;;5053046;28;20132;-76
2022/01/27 02:22:02;;;;;;;42.50;20.57;;;5.50;99.90;;;;;;5052791;28;20060;-76
2022/01/27 02:24:30;;;;;;;43.70;20.67;;;5.50;99.90;;;;;;5050894;28;20053;-76
2022/01/27 02:26:57;;;;;;;37.43;20.30;;;5.50;99.90;;;;;;5053155;28;20041;-77
2022/01/27 02:29:24;;;;;;;42.77;20.60;;;5.50;99.90;;;;;;5053053;28;20048;-76
2022/01/27 02:31:52;;;;;;;41.93;20.37;;;5.50;99.90;;;;;;5052458;28;20056;-75
2022/01/27 02:34:18;;;;;;;40.43;19.67;;;5.50;99.90;;;;;;5084219;28;20041;-75
2022/01/27 02:36:44;;;;;;;42.57;20.30;;;5.50;99.90;;;;;;5052900;28;20079;-76
2022/01/27 02:39:11;;;;;;;40.63;19.90;;;5.50;99.90;;;;;;5052545;28;20047;-75
2022/01/27 02:41:50;;;;;;;40.90;20.30;;;5.50;99.90;;;;;;5053246;28;20048;-76
2022/01/27 02:44:45;;;;;;;42.47;20.20;;;5.50;99.90;;;;;;5052744;28;20045;-76
2022/01/27 02:47:15;;;;;;;44.27;21.10;;;5.50;99.90;;;;;;5033676;28;20056;-75
2022/01/27 02:49:42;;;;;;;47.83;21.50;;;5.50;99.90;;;;;;5052419;28;20204;-76
2022/01/27 02:52:09;;;;;;;46.93;21.27;;;5.50;99.90;;;;;;5053316;28;20049;-76
2022/01/27 02:54:35;;;;;;;43.30;20.63;;;5.40;99.90;;;;;;5051922;28;20052;-76
2022/01/27 02:57:02;;;;;;;43.57;20.47;;;5.50;99.90;;;;;;5052142;28;20044;-76
2022/01/27 02:59:27;;;;;;;43.00;21.60;;;5.50;99.90;;;;;;5083603;28;20056;-77
2022/01/27 03:01:54;;;;;;;43.47;20.97;;;5.50;99.90;;;;;;5035332;28;20207;-76
2022/01/27 03:04:21;;;;;;;48.13;20.33;;;5.50;99.90;;;;;;5052832;28;20049;-77
2022/01/27 03:06:47;;;;;;;38.60;20.20;;;5.40;99.90;;;;;;5051066;28;20396;-76
2022/01/27 03:09:14;;;;;;;44.43;21.23;;;5.50;99.90;;;;;;5052246;28;20064;-76
2022/01/27 03:11:49;;;;;;;47.27;23.13;;;5.40;99.90;;;;;;5052136;28;20163;-76
2022/01/27 03:14:21;;;;;;;42.77;21.73;;;5.40;99.90;;;;;;5053597;28;20504;-76
2022/01/27 03:16:48;;;;;;;46.27;21.70;;;5.40;99.90;;;;;;5085834;28;20109;-76
2022/01/27 03:19:14;;;;;;;48.50;22.30;;;5.50;99.90;;;;;;5035165;28;20045;-76
2022/01/27 03:21:40;;;;;;;48.43;23.07;;;5.40;99.90;;;;;;5053891;28;20124;-77
2022/01/27 03:24:07;;;;;;;49.33;21.30;;;5.50;99.90;;;;;;5052076;28;20033;-76
2022/01/27 03:26:33;;;;;;;43.67;22.53;;;5.50;99.90;;;;;;5035992;28;20051;-76
2022/01/27 03:28:59;;;;;;;47.73;22.40;;;5.50;99.90;;;;;;5039904;28;20535;-76
2022/01/27 03:31:26;;;;;;;47.87;23.43;;;5.50;99.90;;;;;;5056388;28;20060;-75
2022/01/27 03:33:52;;;;;;;47.03;22.27;;;5.50;99.90;;;;;;5089697;28;20041;-76
2022/01/27 03:36:18;;;;;;;47.30;21.67;;;5.50;99.90;;;;;;5039261;28;20051;-76
2022/01/27 03:38:44;;;;;;;52.90;22.40;;;5.50;99.90;;;;;;5056292;28;20855;-76
2022/01/27 03:41:11;;;;;;;44.67;22.10;;;5.50;99.90;;;;;;5056426;28;20052;-76
2022/01/27 03:43:39;;;;;;;47.33;21.43;;;5.50;99.90;;;;;;5038423;28;20053;-76
2022/01/27 03:46:06;;;;;;;49.07;22.07;;;5.50;99.90;;;;;;5055607;28;20045;-76
2022/01/27 03:48:32;;;;;;;46.57;21.83;;;5.50;99.90;;;;;;5038882;28;20095;-75
2022/01/27 03:50:58;;;;;;;45.33;22.83;;;5.40;99.90;;;;;;5088981;28;20047;-76
2022/01/27 03:53:24;;;;;;;47.27;22.53;;;5.50;99.90;;;;;;5055108;28;20048;-75
2022/01/27 03:55:50;;;;;;;47.50;22.80;;;5.50;99.90;;;;;;5055557;28;20045;-75
2022/01/27 03:58:16;;;;;;;50.53;23.07;;;5.50;99.90;;;;;;5056557;28;20134;-75
2022/01/27 04:00:42;;;;;;;52.37;25.07;;;5.50;99.90;;;;;;5055668;28;20233;-75
2022/01/27 04:03:10;;;;;;;46.23;21.63;;;5.50;99.90;;;;;;5038482;28;20504;-75
2022/01/27 04:05:48;;;;;;;47.00;22.70;;;5.50;99.90;;;;;;5053297;28;20040;-75
2022/01/27 04:08:14;;;;;;;49.37;23.27;;;5.40;99.90;;;;;;5085846;28;20040;-75
2022/01/27 04:10:40;;;;;;;44.37;22.33;;;5.50;99.90;;;;;;5054978;28;20524;-76
2022/01/27 04:13:07;;;;;;;45.43;23.10;;;5.40;99.90;;;;;;5055519;28;20044;-76
2022/01/27 04:15:34;;;;;;;51.90;22.37;;;5.50;99.90;;;;;;5038614;28;20064;-76
2022/01/27 04:17:59;;;;;;;51.50;23.93;;;5.50;99.90;;;;;;5056052;28;20147;-76
2022/01/27 04:20:25;;;;;;;46.67;22.50;;;5.40;99.90;;;;;;5054812;28;20064;-76
2022/01/27 04:22:51;;;;;;;45.47;22.03;;;5.50;99.90;;;;;;5038383;28;20045;-76
2022/01/27 04:25:17;;;;;;;49.10;21.87;;;5.50;99.90;;;;;;5055377;28;20041;-76
2022/01/27 04:27:51;;;;;;;47.37;21.93;;;5.50;99.90;;;;;;5055451;28;20079;-75
2022/01/27 04:30:19;;;;;;;48.00;22.57;;;5.50;99.90;;;;;;5054855;28;20052;-76
2022/01/27 04:32:57;;;;;;;45.60;22.97;;;5.50;99.90;;;;;;5068540;28;20045;-76
2022/01/27 04:35:26;;;;;;;41.30;20.53;;;5.60;99.90;;;;;;5054602;28;20053;-76
2022/01/27 04:38:03;;;;;;;47.30;23.03;;;5.60;99.90;;;;;;5054551;28;20117;-75
2022/01/27 04:40:39;;;;;;;53.07;22.80;;;5.50;99.90;;;;;;5054744;28;20048;-76
2022/01/27 04:45:40;;;;;;;44.20;21.90;;;5.50;99.90;;;;;;5055079;28;20052;-76
2022/01/27 04:48:11;;;;;;;50.30;22.37;;;5.60;99.90;;;;;;5054310;28;20051;-76
2022/01/27 04:50:38;;;;;;;47.03;21.38;;;5.50;99.90;;;;;;5054476;28;20045;-75
2022/01/27 04:53:06;;;;;;;44.57;21.97;;;5.60;99.90;;;;;;5037715;28;20112;-76
2022/01/27 04:55:32;;;;;;;46.10;21.50;;;5.50;99.90;;;;;;5021995;28;20539;-76
2022/01/27 04:58:09;;;;;;;50.53;22.93;;;5.60;99.90;;;;;;5037659;28;20036;-75
2022/01/27 05:00:35;;;;;;;49.87;21.60;;;5.50;99.90;;;;;;5039439;28;20053;-76
2022/01/27 05:03:10;;;;;;;45.70;23.30;;;5.50;99.90;;;;;;5038246;28;20055;-75
2022/01/27 05:05:38;;;;;;;44.97;21.43;;;5.60;99.90;;;;;;5052941;28;20055;-75
2022/01/27 05:08:03;;;;;;;45.63;22.37;;;5.60;99.90;;;;;;5054572;28;20995;-76
2022/01/27 05:10:34;;;;;;;42.30;20.17;;;5.60;99.90;;;;;;5037252;28;20053;-75
2022/01/27 05:13:14;;;;;;;41.10;20.47;;;5.60;99.90;;;;;;5038325;28;20128;-75
2022/01/27 05:15:45;;;;;;;47.27;21.60;;;5.60;99.90;;;;;;5039243;28;20437;-76
2022/01/27 05:18:11;;;;;;;43.60;20.90;;;5.60;99.90;;;;;;5054226;28;20060;-76
2022/01/27 05:20:37;;;;;;;47.37;20.80;;;5.70;99.90;;;;;;5053998;28;20106;-75
2022/01/27 05:23:03;;;;;;;46.20;21.60;;;5.70;99.90;;;;;;5056597;28;20083;-76
2022/01/27 05:25:29;;;;;;;50.00;20.77;;;5.70;99.90;;;;;;5056551;28;21920;-75
2022/01/27 05:27:54;;;;;;;45.43;20.40;;;5.70;99.90;;;;;;5052517;28;20053;-75
2022/01/27 05:30:20;;;;;;;44.67;20.97;;;5.70;99.90;;;;;;5053796;28;20041;-76
2022/01/27 05:32:46;;;;;;;45.57;20.90;;;5.70;99.90;;;;;;5055668;28;20044;-75
2022/01/27 05:35:12;;;;;;;46.10;20.03;;;5.80;99.90;;;;;;5053936;28;20044;-76
2022/01/27 05:37:37;;;;;;;48.80;18.93;;;5.80;99.90;;;;;;5053994;28;20032;-75
2022/01/27 05:40:04;;;;;;;49.90;21.20;;;5.80;99.90;;;;;;5053874;28;20648;-76
2022/01/27 05:42:30;;;;;;;44.40;20.40;;;5.80;99.90;;;;;;5054550;28;20060;-75
2022/01/27 05:44:55;;;;;;;48.80;20.63;;;5.80;99.90;;;;;;5053698;28;20527;-76
2022/01/27 05:47:21;;;;;;;52.93;22.37;;;5.80;99.90;;;;;;5037776;28;20088;-76
2022/01/27 05:49:47;;;;;;;45.10;21.53;;;5.70;99.90;;;;;;5052804;28;20080;-75
2022/01/27 05:52:12;;;;;;;49.27;22.10;;;5.80;99.90;;;;;;5037627;28;20075;-76
2022/01/27 05:54:38;;;;;;;52.53;22.07;;;5.80;99.90;;;;;;5036635;28;20044;-75
2022/01/27 05:57:04;;;;;;;46.20;21.10;;;5.80;99.90;;;;;;5053790;28;20561;-75
2022/01/27 05:59:29;;;;;;;43.10;21.07;;;5.70;99.90;;;;;;5053478;28;20076;-76
2022/01/27 06:01:55;;;;;;;45.53;20.83;;;5.70;99.90;;;;;;5037217;28;20044;-76
2022/01/27 06:04:21;;;;;;;53.23;23.43;;;5.70;99.90;;;;;;5053223;28;20053;-76
2022/01/27 06:06:47;;;;;;;54.37;22.20;;;5.60;99.90;;;;;;5020013;28;20055;-75
2022/01/27 06:09:12;;;;;;;53.57;22.83;;;5.70;99.90;;;;;;5036907;28;20041;-75
2022/01/27 06:11:38;;;;;;;50.30;21.90;;;5.70;99.90;;;;;;5052813;28;20527;-76
2022/01/27 06:14:04;;;;;;;55.20;23.00;;;5.70;99.90;;;;;;5053230;28;20114;-76
2022/01/27 06:16:30;;;;;;;51.77;21.50;;;5.60;99.90;;;;;;5052963;28;20044;-76
2022/01/27 06:18:55;;;;;;;53.40;23.17;;;5.60;99.90;;;;;;5052136;28;20044;-77
2022/01/27 06:21:21;;;;;;;54.73;21.97;;;5.60;99.90;;;;;;5036154;28;20068;-77
2022/01/27 06:23:48;;;;;;;45.83;20.20;;;5.70;99.90;;;;;;5035932;28;20053;-75
2022/01/27 06:26:14;;;;;;;51.93;22.83;;;5.70;99.90;;;;;;5036034;28;20102;-75
2022/01/27 06:28:40;;;;;;;53.87;22.20;;;5.60;99.90;;;;;;5052593;28;20080;-76
2022/01/27 06:31:05;;;;;;;50.97;21.00;;;5.60;99.90;;;;;;5052865;28;20055;-76
2022/01/27 06:33:31;;;;;;;47.60;20.53;;;5.60;99.90;;;;;;5033795;28;20041;-76
2022/01/27 06:35:57;;;;;;;54.80;21.93;;;5.70;99.90;;;;;;5052245;28;20041;-77
2022/01/27 06:38:22;;;;;;;49.77;22.27;;;5.70;99.90;;;;;;5032851;28;20507;-76
2022/01/27 06:40:48;;;;;;;44.70;19.90;;;5.70;99.90;;;;;;5051168;28;20045;-76
2022/01/27 06:43:15;;;;;;;44.90;21.10;;;5.70;99.90;;;;;;5050886;28;20389;-76
2022/01/27 06:45:40;;;;;;;44.93;20.87;;;5.70;99.90;;;;;;5036449;28;20048;-76
2022/01/27 06:48:06;;;;;;;48.33;20.83;;;5.80;99.90;;;;;;5052914;28;20049;-76
2022/01/27 06:50:32;;;;;;;40.90;19.30;;;5.80;99.90;;;;;;5033716;28;20061;-76
2022/01/27 06:52:59;;;;;;;41.30;19.20;;;5.80;99.90;;;;;;5051723;28;20773;-76
2022/01/27 06:55:25;;;;;;;44.67;20.17;;;5.80;99.90;;;;;;5049595;28;20092;-76
2022/01/27 06:57:51;;;;;;;40.07;18.63;;;5.80;99.90;;;;;;5034404;28;20052;-76
2022/01/27 07:00:18;;;;;;;39.20;18.03;;;5.80;99.90;;;;;;5066735;28;20052;-76
2022/01/27 07:02:43;;;;;;;42.83;18.10;;;5.80;99.90;;;;;;5065720;28;20076;-74
2022/01/27 07:05:13;;;;;;;40.77;18.30;;;5.80;99.90;;;;;;5050162;28;20036;-74
2022/01/27 07:07:39;;;;;;;41.17;19.50;;;5.80;99.90;;;;;;5049772;28;20126;-83
2022/01/27 07:10:06;;;;;;;33.77;17.67;;;5.90;99.90;;;;;;5019222;28;20595;-81
2022/01/27 07:12:32;;;;;;;39.47;18.47;;;5.90;99.90;;;;;;5053199;28;20056;-74
2022/01/27 07:14:58;;;;;;;33.07;17.07;;;5.90;99.90;;;;;;5051372;28;20041;-75
2022/01/27 07:17:24;;;;;;;37.63;16.63;;;5.90;99.90;;;;;;5035136;28;20060;-75
2022/01/27 07:19:50;;;;;;;35.43;16.63;;;5.90;99.90;;;;;;5036102;28;20519;-73
2022/01/27 07:22:16;;;;;;;33.33;17.30;;;5.90;99.90;;;;;;5035539;28;20048;-73
2022/01/27 07:24:41;;;;;;;35.27;16.63;;;6.00;99.90;;;;;;5035232;28;20057;-73
2022/01/27 07:27:08;;;;;;;34.50;16.07;;;6.00;99.90;;;;;;5035756;28;20048;-73
2022/01/27 07:29:34;;;;;;;36.53;15.47;;;6.00;99.90;;;;;;5034946;28;20057;-78
2022/01/27 07:32:00;;;;;;;33.77;16.13;;;6.00;99.90;;;;;;5054560;28;20055;-74
2022/01/27 07:34:26;;;;;;;31.73;16.23;;;6.10;99.90;;;;;;5057217;28;20041;-74
2022/01/27 07:36:58;;;;;;;29.80;15.03;;;6.10;99.90;;;;;;5018410;28;20052;-74
2022/01/27 07:39:24;;;;;;;;;;;6.10;99.90;;;;;;5052322;28;20052;-74
2022/01/27 07:41:50;;;;;;;27.03;13.60;;;6.20;99.90;;;;;;5036450;28;19920;-74
2022/01/27 07:44:16;;;;;;;23.20;12.90;;;6.20;99.90;;;;;;5055721;28;20705;-74
2022/01/27 07:46:42;;;;;;;28.10;13.37;;;6.20;99.90;;;;;;5051780;28;20083;-74
2022/01/27 07:49:08;;;;;;;25.80;12.33;;;6.20;99.90;;;;;;5051462;28;20075;-75
2022/01/27 07:51:34;;;;;;;26.67;12.70;;;6.30;99.90;;;;;;5018230;28;20359;-74
2022/01/27 07:53:59;;;;;;;19.90;11.83;;;6.30;99.90;;;;;;5035511;28;20128;-75
2022/01/27 07:56:26;;;;;;;20.33;12.00;;;6.30;99.90;;;;;;5034882;28;20079;-75
2022/01/27 07:58:52;;;;;;;22.60;12.47;;;6.30;99.90;;;;;;5054889;28;20057;-75
2022/01/27 08:01:18;;;;;;;21.53;12.37;;;6.40;99.90;;;;;;5033701;28;20057;-77
2022/01/27 08:03:44;;;;;;;25.80;12.30;;;6.40;99.90;;;;;;5053335;28;20423;-77
2022/01/27 08:06:10;;;;;;;23.77;12.37;;;6.40;99.90;;;;;;5064744;28;20382;-77
2022/01/27 08:08:36;;;;;;;24.37;13.23;;;6.40;99.90;;;;;;5062937;28;20049;-76
2022/01/27 08:11:02;;;;;;;29.43;13.57;;;6.40;99.90;;;;;;5061222;28;20052;-78
2022/01/27 08:13:28;;;;;;;26.17;13.43;;;6.50;99.90;;;;;;5067668;28;20041;-76
2022/01/27 08:15:54;;;;;;;27.07;14.07;;;6.50;99.90;;;;;;5082755;28;20126;-76
2022/01/27 08:18:20;;;;;;;30.13;14.80;;;6.50;99.90;;;;;;5054111;28;20047;-76
2022/01/27 08:20:47;;;;;;;27.33;13.97;;;6.60;99.90;;;;;;5035122;28;20084;-76
2022/01/27 08:23:16;;;;;;;30.53;14.67;;;6.60;99.90;;;;;;5051974;28;20930;-77
2022/01/27 08:25:45;;;;;;;32.90;15.03;;;6.60;99.90;;;;;;5037593;28;20719;-76
2022/01/27 08:28:50;;;;;;;33.13;16.17;;;6.70;99.90;;;;;;5037800;28;20053;-74
2022/01/27 08:31:04;;;;;;;28.05;14.00;;;6.70;99.90;;;;;;5039759;28;20056;-75
2022/01/27 08:33:31;;;;;;;41.67;16.10;;;6.70;99.90;;;;;;5037866;28;20036;-75
2022/01/27 08:35:58;;;;;;;35.83;15.73;;;6.80;99.90;;;;;;5054702;28;20048;-74
2022/01/27 08:38:28;;;;;;;39.43;16.20;;;6.80;99.90;;;;;;5055653;28;20053;-77
2022/01/27 08:40:55;;;;;;;37.17;16.37;;;6.80;99.90;;;;;;5069697;28;20496;-77
2022/01/27 08:43:21;;;;;;;38.07;15.23;;;6.90;99.90;;;;;;5038792;28;20560;-76
2022/01/27 08:45:47;;;;;;;45.07;15.73;;;7.00;99.90;;;;;;5038334;28;20512;-76
2022/01/27 08:48:17;;;;;;;38.63;15.37;;;7.00;99.90;;;;;;5055673;28;20089;-76
2022/01/27 08:50:50;;;;;;;37.20;13.93;;;7.00;99.90;;;;;;5072595;28;20052;-76
2022/01/27 08:53:16;;;;;;;35.83;13.93;;;7.10;99.90;;;;;;5053299;28;20087;-76
2022/01/27 08:55:44;;;;;;;37.43;15.47;;;7.10;99.90;;;;;;5055935;28;20048;-76
2022/01/27 08:58:11;;;;;;;36.50;14.40;;;7.20;99.90;;;;;;5054679;28;20428;-76
2022/01/27 09:00:37;;;;;;;30.57;12.87;;;7.20;99.90;;;;;;5087531;28;20033;-76
2022/01/27 09:03:02;;;;;;;36.63;14.57;;;7.30;99.90;;;;;;5054998;28;20041;-76
2022/01/27 09:05:28;;;;;;;29.70;12.90;;;7.30;99.90;;;;;;5054752;28;20056;-76
2022/01/27 09:07:56;;;;;;;33.47;12.40;;;7.40;99.90;;;;;;5037935;28;20053;-76
2022/01/27 09:10:23;;;;;;;30.53;12.60;;;7.40;99.90;;;;;;5072112;28;20078;-76
2022/01/27 09:12:49;;;;;;;31.47;13.80;;;7.40;99.90;;;;;;5071866;28;20164;-76
2022/01/27 09:15:15;;;;;;;33.47;11.93;;;7.40;99.90;;;;;;5070794;28;20083;-76
2022/01/27 09:17:40;;;;;;;30.83;11.83;;;7.50;99.90;;;;;;5054789;28;20060;-77
2022/01/27 09:20:11;;;;;;;29.63;10.90;;;7.50;99.90;;;;;;5054531;28;20051;-76
2022/01/27 09:22:37;;;;;;;26.73;11.63;;;7.50;99.90;;;;;;5052220;28;20080;-76
2022/01/27 09:25:11;;;;;;;26.23;10.53;;;7.50;99.90;;;;;;5053159;28;20086;-76
2022/01/27 09:27:37;;;;;;;29.43;11.17;;;7.50;99.90;;;;;;5036402;28;20119;-76
2022/01/27 09:30:03;;;;;;;30.20;10.50;;;7.50;99.90;;;;;;5054527;28;20088;-76
2022/01/27 09:32:29;;;;;;;27.03;10.77;;;7.60;99.90;;;;;;5052988;28;20037;-76
2022/01/27 09:34:55;;;;;;;33.43;11.03;;;7.60;99.90;;;;;;5088207;28;20045;-76
2022/01/27 09:37:20;;;;;;;23.97;10.00;;;7.60;99.90;;;;;;5054285;28;20076;-76
2022/01/27 09:39:46;;;;;;;26.83;10.27;;;7.60;99.90;;;;;;5054041;28;20045;-76
2022/01/27 09:42:12;;;;;;;28.97;9.73;;;7.60;99.90;;;;;;5037151;28;20033;-75
2022/01/27 09:44:41;;;;;;;25.60;10.17;;;7.70;99.90;;;;;;5053439;28;20041;-76
2022/01/27 09:47:16;;;;;;;26.93;10.30;;;7.70;99.90;;;;;;5038468;28;20119;-76
2022/01/27 09:49:50;;;;;;;24.30;9.37;;;7.80;99.90;;;;;;5053329;28;20071;-76
2022/01/27 09:52:16;;;;;;;27.90;9.40;;;7.80;99.90;;;;;;5084641;28;20045;-76
2022/01/27 09:54:44;;;;;;;23.30;8.43;;;7.80;99.90;;;;;;5037069;28;20514;-77
2022/01/27 09:57:11;;;;;;;22.47;8.10;;;7.90;99.90;;;;;;5054938;28;20049;-76
2022/01/27 09:59:36;;;;;;;23.93;8.97;;;7.90;99.90;;;;;;5053715;28;20131;-76
2022/01/27 10:02:06;;;;;;;20.33;8.63;;;7.90;99.90;;;;;;5052110;28;20094;-76
2022/01/27 10:04:57;;;;;;;21.97;8.37;;;7.90;99.90;;;;;;5068625;28;20043;-76
2022/01/27 10:07:29;;;;;;;16.80;7.63;;;8.00;99.90;;;;;;5086001;28;20064;-76
2022/01/27 10:10:07;;;;;;;23.00;7.83;;;8.00;99.90;;;;;;5053163;28;20077;-76
2022/01/27 10:12:39;;;;;;;18.00;6.83;;;8.10;99.90;;;;;;5085408;28;20535;-76
2022/01/27 10:15:10;;;;;;;21.88;8.18;;;8.10;99.90;;;;;;5052473;28;20236;-76
2022/01/27 10:17:39;;;;;;;17.95;6.15;;;8.20;99.90;;;;;;5052169;28;20061;-76
2022/01/27 10:20:16;;;;;;;22.07;6.63;;;8.20;99.90;;;;;;5053249;28;20119;-76
2022/01/27 10:22:42;;;;;;;20.33;6.97;;;8.30;99.90;;;;;;5061917;28;20049;-76
2022/01/27 10:25:10;;;;;;;18.57;6.27;;;8.30;99.90;;;;;;5053934;28;20051;-76
2022/01/27 10:30:36;;;;;;;19.40;6.50;;;8.40;99.90;;;;;;5086901;28;20041;-76
2022/01/27 10:32:56;;;;;;;18.40;6.10;;;8.40;99.90;;;;;;5051866;28;20072;-76
2022/01/27 10:35:25;;;;;;;18.67;6.27;;;8.50;99.90;;;;;;5053028;28;20048;-76
2022/01/27 10:38:12;;;;;;;22.33;6.37;;;8.40;99.90;;;;;;5054120;28;20095;-76
2022/01/27 10:40:44;;;;;;;19.80;6.10;;;8.50;99.90;;;;;;5051057;28;20103;-76
2022/01/27 10:43:16;;;;;;;23.10;5.80;;;8.50;99.90;;;;;;5052745;28;20095;-76
2022/01/27 10:46:25;;;;;;;16.60;5.88;;;8.50;99.90;;;;;;5052269;28;20052;-76
2022/01/27 10:48:59;;;;;;;18.97;6.07;;;8.50;99.90;;;;;;5052543;28;20120;-76
2022/01/27 10:51:29;;;;;;;19.57;5.97;;;8.60;99.90;;;;;;5067995;28;20191;-77
2022/01/27 10:54:03;;;;;;;22.47;5.77;;;8.60;99.90;;;;;;5065207;28;20061;-76
2022/01/27 10:56:32;;;;;;;17.17;5.47;;;8.70;99.90;;;;;;5035824;28;20049;-75
2022/01/27 10:59:00;;;;;;;19.17;5.60;;;8.70;99.90;;;;;;5037082;28;20045;-76
2022/01/27 11:01:50;;;;;;;21.27;7.33;;;8.70;99.90;;;;;;5035880;28;20401;-75
2022/01/27 11:04:18;;;;;;;19.30;5.87;;;8.80;99.90;;;;;;5035709;28;20065;-76
2022/01/27 11:06:58;;;;;;;19.50;5.77;;;8.70;99.90;;;;;;5068780;28;20083;-75
2022/01/27 11:09:26;;;;;;;16.53;5.57;;;8.80;99.90;;;;;;5086241;28;20041;-76
2022/01/27 11:11:56;;;;;;;18.43;5.13;;;8.80;99.90;;;;;;5067051;28;20072;-75
2022/01/27 11:14:25;;;;;;;19.90;5.13;;;8.80;99.90;;;;;;5051833;28;20041;-76
2022/01/27 11:16:57;;;;;;;13.77;5.07;;;8.80;99.90;;;;;;5036111;28;20117;-76
2022/01/27 11:22:09;;;;;;;15.33;4.80;;;8.80;99.90;;;;;;5053579;28;21046;-76
2022/01/27 11:27:22;;;;;;;22.37;5.20;;;8.80;99.90;;;;;;5083896;28;20060;-75
2022/01/27 11:30:00;;;;;;;15.30;5.47;;;8.80;99.90;;;;;;5052818;28;20059;-76
2022/01/27 11:32:38;;;;;;;19.00;4.97;;;8.90;99.90;;;;;;5083351;28;20037;-76
2022/01/27 11:35:16;;;;;;;15.57;5.07;;;8.90;99.90;;;;;;5051215;28;20099;-77
2022/01/27 11:37:49;;;;;;;13.07;5.00;;;8.80;99.90;;;;;;5051209;28;20059;-76
2022/01/27 11:40:17;;;;;;;16.57;5.17;;;8.90;99.90;;;;;;5052787;28;20052;-76
2022/01/27 11:43:00;;;;;;;13.73;4.10;;;8.80;99.90;;;;;;5052507;28;20057;-76
2022/01/27 11:45:28;;;;;;;18.10;4.70;;;8.80;99.90;;;;;;5050607;28;20044;-76
2022/01/27 11:47:54;;;;;;;20.30;5.13;;;8.90;99.90;;;;;;5053174;28;20081;-76
2022/01/27 11:50:32;;;;;;;18.67;4.93;;;8.90;99.90;;;;;;5040020;28;20555;-76
2022/01/27 11:52:59;;;;;;;17.10;4.60;;;8.90;99.90;;;;;;5055500;28;20531;-75
2022/01/27 11:55:24;;;;;;;15.67;4.40;;;8.90;99.90;;;;;;5039756;28;20052;-78
2022/01/27 11:58:11;;;;;;;21.67;4.47;;;8.90;99.90;;;;;;5057383;28;20435;-77
2022/01/27 12:00:37;;;;;;;19.13;4.30;;;8.90;99.90;;;;;;5056133;28;20041;-75
2022/01/27 12:03:03;;;;;;;18.70;4.67;;;8.90;99.90;;;;;;5055455;28;20426;-73
2022/01/27 12:05:34;;;;;;;12.77;3.70;;;8.90;99.90;;;;;;5055410;28;20339;-74
2022/01/27 12:08:09;;;;;;;16.73;4.22;;;8.90;99.90;;;;;;5055481;28;20132;-73
2022/01/27 12:10:39;;;;;;;12.37;4.43;;;9.00;99.90;;;;;;5054468;28;20063;-74
2022/01/27 12:13:29;;;;;;;11.37;4.37;;;9.00;99.90;;;;;;5054689;28;20060;-73
2022/01/27 12:16:37;;;;;;;14.47;3.90;;;9.00;99.90;;;;;;5047876;28;20411;-73
2022/01/27 12:19:09;;;;;;;15.37;3.63;;;9.00;99.90;;;;;;5062172;28;20036;-72
2022/01/27 12:21:57;;;;;;;12.85;3.63;;;9.00;99.90;;;;;;5038178;28;20048;-72
2022/01/27 12:24:24;;;;;;;14.77;3.87;;;9.10;99.90;;;;;;5080892;28;20072;-72
2022/01/27 12:26:57;;;;;;;20.77;4.13;;;9.10;99.90;;;;;;5055250;28;20060;-73
2022/01/27 12:29:27;;;;;;;18.53;4.60;;;9.00;99.90;;;;;;5064230;28;20484;-72
2022/01/27 12:31:54;;;;;;;17.97;3.97;;;9.10;99.90;;;;;;5055120;28;20049;-73
2022/01/27 12:34:21;;;;;;;14.07;3.60;;;9.10;99.90;;;;;;5055204;28;20053;-73
2022/01/27 12:37:09;;;;;;;16.37;3.63;;;9.10;99.90;;;;;;5055240;28;20223;-73
2022/01/27 12:39:39;;;;;;;15.63;5.00;;;9.10;99.90;;;;;;5046024;28;20104;-73
2022/01/27 12:42:07;;;;;;;14.80;3.93;;;9.10;99.90;;;;;;5054749;28;20446;-72
2022/01/27 12:44:34;;;;;;;18.80;3.80;;;9.10;99.90;;;;;;5054775;28;20068;-73
2022/01/27 12:47:05;;;;;;;13.07;3.50;;;9.10;99.90;;;;;;5038132;28;20591;-73
2022/01/27 12:49:47;;;;;;;18.17;4.03;;;9.10;99.90;;;;;;5086996;28;20415;-72
2022/01/27 12:52:19;;;;;;;16.98;3.50;;;9.10;99.90;;;;;;5051584;28;20150;-73
2022/01/27 12:54:47;;;;;;;15.83;4.20;;;9.10;99.90;;;;;;5054394;28;20045;-73
2022/01/27 12:57:13;;;;;;;17.87;4.17;;;9.10;99.90;;;;;;5054650;28;20084;-74
2022/01/27 12:59:42;;;;;;;18.47;4.20;;;9.00;99.90;;;;;;5020432;28;20575;-75
2022/01/27 13:02:10;;;;;;;17.73;4.47;;;9.00;99.90;;;;;;5030738;28;20104;-73
2022/01/27 13:04:38;;;;;;;12.37;3.07;;;9.00;99.90;;;;;;5055143;28;20531;-73
2022/01/27 13:07:04;;;;;;;17.70;4.03;;;8.90;99.90;;;;;;5088024;28;20074;-73
2022/01/27 13:09:32;;;;;;;20.17;4.53;;;8.90;99.90;;;;;;5055136;28;20120;-73
2022/01/27 13:12:09;;;;;;;13.10;3.50;;;8.90;99.90;;;;;;5053947;28;20076;-74
2022/01/27 13:15:14;;;;;;;14.63;3.53;;;8.90;99.90;;;;;;5053572;28;20059;-74
2022/01/27 13:17:53;;;;;;;17.73;3.43;;;8.90;99.90;;;;;;5044741;28;20133;-74
2022/01/27 13:20:27;;;;;;;15.83;3.93;;;8.90;99.90;;;;;;5037304;28;20059;-74
2022/01/27 13:22:58;;;;;;;20.00;4.37;;;8.90;99.90;;;;;;5042374;28;20522;-73
2022/01/27 13:25:41;;;;;;;13.05;3.88;;;9.00;99.90;;;;;;5054467;28;20527;-73
2022/01/27 13:28:18;;;;;;;21.33;3.53;;;9.00;99.90;;;;;;5057329;28;20040;-73
2022/01/27 13:30:44;;;;;;;18.70;4.33;;;9.00;99.90;;;;;;5054882;28;20053;-73
2022/01/27 13:33:15;;;;;;;18.77;4.23;;;9.00;99.90;;;;;;5037563;28;20073;-72
2022/01/27 13:35:42;;;;;;;20.30;3.90;;;9.00;99.90;;;;;;5053974;28;20108;-73